This is the latest recevied weather packets stored in our database for station/object WV6L-13. If no packets are shown the sender has not sent any weather packets the latest 1 day(s).
| Time | Temp. | Humidity | Pressure | Rain* | Wind** | Luminosity | Snow |
|---|---|---|---|---|---|---|---|
| 1778039093 | 17.78° C | 33% | 923.1 hPa | - | 0.89 m/s, 106° | - | - |
| 1778038793 | 17.78° C | 33% | 923.1 hPa | - | 0.89 m/s, 166° | - | - |
| 1778038492 | 17.22° C | 33% | 923.1 hPa | - | 0.89 m/s, 166° | - | - |
| 1778038193 | 17.22° C | 33% | 922.9 hPa | - | 0.89 m/s, 164° | - | - |
| 1778037893 | 17.22° C | 34% | 922.8 hPa | - | 0.45 m/s, 209° | - | - |
| 1778037292 | 17.78° C | 34% | 922.6 hPa | - | 0.89 m/s, 132° | - | - |
| 1778036993 | 17.78° C | 33% | 922.6 hPa | - | 0.89 m/s, 108° | - | - |
| 1778036693 | 18.33° C | 32% | 922.5 hPa | - | 1.34 m/s, 145° | - | - |
| 1778036393 | 18.89° C | 32% | 922.3 hPa | - | 0.89 m/s, 157° | - | - |
| 1778036093 | 18.89° C | 31% | 922.4 hPa | - | 1.34 m/s, 158° | - | - |
| 1778035793 | 18.89° C | 31% | 922.5 hPa | - | 0.45 m/s, 174° | - | - |
| 1778035493 | 19.44° C | 31% | 922.2 hPa | - | 1.79 m/s, 171° | - | - |
| 1778035193 | 19.44° C | 31% | 922.1 hPa | - | 0.89 m/s, 183° | - | - |
| 1778034893 | 19.44° C | 30% | 922 hPa | - | 0.89 m/s, 180° | - | - |
| 1778034593 | 20° C | 30% | 921.9 hPa | - | 1.34 m/s, 180° | - | - |
| 1778034293 | 20° C | 30% | 921.9 hPa | - | 1.34 m/s, 186° | - | - |
| 1778033992 | 20° C | 29% | 921.8 hPa | - | 2.68 m/s, 211° | - | - |
| 1778033393 | 21.11° C | 28% | 921.8 hPa | - | 2.24 m/s, 217° | - | - |
| 1778033093 | 21.11° C | 28% | 921.7 hPa | - | 1.79 m/s, 168° | - | - |
| 1778032792 | 21.11° C | 28% | 921.8 hPa | - | 1.34 m/s, 214° | - | - |
| 1778032493 | 21.11° C | 29% | 921.6 hPa | - | 0.45 m/s, 105° | - | - |
| 1778032193 | 21.67° C | 29% | 921.8 hPa | - | 1.79 m/s, 235° | - | - |
| 1778031893 | 21.67° C | 28% | 921.5 hPa | - | 2.24 m/s, 175° | - | - |
| 1778031593 | 21.67° C | 29% | 921.6 hPa | - | 1.79 m/s, 197° | - | - |
| 1778031293 | 21.67° C | 28% | 921.7 hPa | - | 1.34 m/s, 216° | - | - |
* Rain since midnight (hover to see other rain measurements)
** Current wind speed in m/s (hover to see current wind gust speed)